Time;durP1;ratioP1;P1;durP2;ratioP2;P2;SDS_P1;SDS_P2;PMS_P1;PMS_P2;Temp;Humidity;BMP_temperature;BMP_pressure;BME280_temperature;BME280_humidity;BME280_pressure;Samples;Min_cycle;Max_cycle;Signal;HPM_P1;HPM_P2
2023/01/07 00:00:44;;;;;;;;;;;;;;;18.77;47.60;101701.97;5098296;28;1296;-42
2023/01/07 00:03:10;;;;;;;;;;;;;;;18.29;48.30;101712.91;5098507;28;1218;-40
2023/01/07 00:05:35;;;;;;;;;;;;;;;17.49;48.62;101704.34;5098121;28;1159;-41
2023/01/07 00:08:01;;;;;;;;;;;;;;;17.29;47.70;101705.78;5098541;28;1142;-46
2023/01/07 00:10:26;;;;;;;;;;;;;;;17.17;46.74;101705.91;5097906;28;1368;-41
2023/01/07 00:12:52;;;;;;;;;;;;;;;17.70;48.33;101720.03;5097445;28;2246;-43
2023/01/07 00:15:17;;;;;;;;;;;;;;;17.22;48.04;101718.88;5096420;28;1119;-41
2023/01/07 00:17:43;;;;;;;;;;;;;;;17.26;48.47;101723.63;5098153;28;1905;-42
2023/01/07 00:20:08;;;;;;;;;;;;;;;17.85;48.59;101726.78;5097873;28;1244;-43
2023/01/07 00:22:34;;;;;;;;;;;;;;;17.28;48.35;101737.13;5098313;28;1042;-43
2023/01/07 00:24:59;;;;;;;;;;;;;;;16.96;47.61;101740.53;5097979;28;1085;-41
2023/01/07 00:27:25;;;;;;;;;;;;;;;17.64;48.39;101734.78;5098449;28;1034;-42
2023/01/07 00:29:50;;;;;;;;;;;;;;;17.25;49.05;101734.84;5096602;28;1074;-42
2023/01/07 00:32:15;;;;;;;;;;;;;;;18.97;47.06;101737.09;5086915;28;987;-41
2023/01/07 00:34:41;;;;;;;;;;;;;;;17.88;48.70;101740.00;5094758;28;1115;-43
2023/01/07 00:39:50;;;;;;;;;;;;;;;17.08;47.38;101744.00;5084797;28;1039;-43
2023/01/07 00:45:00;;;;;;;;;;;;;;;17.43;48.73;101751.06;5095912;28;2534;-43
2023/01/07 00:47:25;;;;;;;;;;;;;;;17.09;48.20;101753.06;5096336;28;1105;-43
2023/01/07 00:49:51;;;;;;;;;;;;;;;18.55;47.65;101744.25;5096860;28;1131;-41
2023/01/07 00:52:16;;;;;;;;;;;;;;;17.45;48.72;101737.88;5095752;28;1103;-43
2023/01/07 00:54:41;;;;;;;;;;;;;;;17.18;47.88;101747.97;5096414;28;1350;-43
2023/01/07 00:57:08;;;;;;;;;;;;;;;17.92;48.53;101746.69;5084166;28;1918;-42
2023/01/07 00:59:33;;;;;;;;;;;;;;;17.19;48.69;101735.88;5079219;28;1129;-44
2023/01/07 01:01:59;;;;;;;;;;;;;;;17.06;47.53;101737.91;5096177;28;1153;-42
2023/01/07 01:04:24;;;;;;;;;;;;;;;17.71;48.39;101751.09;5097210;28;1107;-42
2023/01/07 01:06:50;;;;;;;;;;;;;;;17.16;47.99;101755.63;5097309;28;979;-41
2023/01/07 01:09:15;;;;;;;;;;;;;;;17.87;48.13;101760.38;5097250;28;1154;-41
2023/01/07 01:11:41;;;;;;;;;;;;;;;17.62;48.84;101762.56;5096294;28;1135;-41
2023/01/07 01:14:06;;;;;;;;;;;;;;;17.18;48.12;101761.69;5092410;28;1835;-40
2023/01/07 01:16:31;;;;;;;;;;;;;;;16.88;47.63;101761.00;5097303;28;1914;-42
2023/01/07 01:18:57;;;;;;;;;;;;;;;17.49;48.24;101759.34;5097424;28;1058;-42
2023/01/07 01:21:22;;;;;;;;;;;;;;;17.10;48.55;101755.56;5092821;28;892;-43
2023/01/07 01:23:48;;;;;;;;;;;;;;;18.08;48.18;101753.19;5096651;28;1054;-40
2023/01/07 01:26:15;;;;;;;;;;;;;;;18.41;47.94;101754.88;5095527;28;1059;-42
2023/01/07 01:28:40;;;;;;;;;;;;;;;17.43;48.78;101761.22;5096858;28;1007;-41
2023/01/07 01:31:08;;;;;;;;;;;;;;;17.08;47.99;101760.50;5095562;28;1359;-42
2023/01/07 01:33:42;;;;;;;;;;;;;;;17.82;48.51;101752.06;5096555;28;838;-42
2023/01/07 01:36:09;;;;;;;;;;;;;;;17.14;48.73;101752.28;5095059;28;1122;-42
2023/01/07 01:38:34;;;;;;;;;;;;;;;16.92;47.72;101761.34;5095507;28;1984;-41
2023/01/07 01:41:00;;;;;;;;;;;;;;;17.16;48.28;101756.47;5095397;28;1263;-45
2023/01/07 01:43:28;;;;;;;;;;;;;;;17.30;48.83;101748.69;5090004;28;2218;-45
2023/01/07 01:45:53;;;;;;;;;;;;;;;17.58;48.71;101744.09;5095965;28;979;-41
2023/01/07 01:48:19;;;;;;;;;;;;;;;19.00;46.85;101727.47;5095578;28;1131;-40
2023/01/07 01:50:44;;;;;;;;;;;;;;;17.55;48.68;101720.66;5095221;28;1098;-41
2023/01/07 01:53:12;;;;;;;;;;;;;;;17.15;48.90;101726.50;5095378;28;1168;-41
2023/01/07 01:56:07;;;;;;;;;;;;;;;17.58;48.98;101733.06;5094978;28;1169;-45
2023/01/07 01:58:37;;;;;;;;;;;;;;;17.15;48.23;101734.72;5092058;28;1886;-45
2023/01/07 02:01:04;;;;;;;;;;;;;;;18.14;48.25;101732.88;5094745;28;1311;-45
2023/01/07 02:03:32;;;;;;;;;;;;;;;17.27;48.76;101725.28;5095373;28;1363;-42
2023/01/07 02:05:57;;;;;;;;;;;;;;;17.10;48.68;101721.75;5078145;28;1146;-43
2023/01/07 02:08:23;;;;;;;;;;;;;;;17.84;48.53;101722.34;5096143;28;987;-45
2023/01/07 02:11:04;;;;;;;;;;;;;;;17.07;48.73;101716.78;5075147;28;1225;-40
2023/01/07 02:13:50;;;;;;;;;;;;;;;16.96;47.52;101714.94;5088769;28;2505;-45
2023/01/07 02:16:19;;;;;;;;;;;;;;;17.59;48.58;101713.56;5096290;28;1269;-41
2023/01/07 02:19:03;;;;;;;;;;;;;;;17.04;48.08;101717.25;5095603;28;1969;-42
2023/01/07 02:21:47;;;;;;;;;;;;;;;18.45;47.33;101725.72;5094903;28;1269;-43
2023/01/07 02:24:28;;;;;;;;;;;;;;;17.31;48.48;101725.59;5094878;28;1124;-42
2023/01/07 02:27:04;;;;;;;;;;;;;;;17.90;48.70;101721.34;5094769;28;1329;-47
2023/01/07 02:30:09;;;;;;;;;;;;;;;17.50;48.87;101722.53;5094922;28;1344;-45
2023/01/07 02:32:34;;;;;;;;;;;;;;;17.79;48.77;101721.22;5039353;28;1331;-43
2023/01/07 02:35:06;;;;;;;;;;;;;;;18.00;48.33;101723.38;5035111;28;1123;-45
2023/01/07 02:37:38;;;;;;;;;;;;;;;17.33;48.17;101726.16;5077942;28;1975;-42
2023/01/07 02:40:13;;;;;;;;;;;;;;;17.08;47.14;101724.75;5094698;28;1069;-42
2023/01/07 02:42:39;;;;;;;;;;;;;;;18.00;48.23;101732.47;5077524;28;1276;-41
2023/01/07 02:45:04;;;;;;;;;;;;;;;17.43;48.83;101718.06;5085952;28;2511;-41
2023/01/07 02:47:35;;;;;;;;;;;;;;;17.10;47.93;101725.34;5094472;28;1157;-42
2023/01/07 02:50:00;;;;;;;;;;;;;;;17.20;48.46;101719.13;5094086;28;1863;-41
2023/01/07 02:52:27;;;;;;;;;;;;;;;17.45;48.67;101710.38;5095655;28;1011;-41
2023/01/07 02:54:58;;;;;;;;;;;;;;;17.62;49.05;101707.53;5095985;28;1169;-41
2023/01/07 02:57:53;;;;;;;;;;;;;;;19.18;46.25;101707.75;5093394;28;1959;-43
2023/01/07 03:00:18;;;;;;;;;;;;;;;17.61;48.33;101703.16;5056283;28;1326;-43
2023/01/07 03:02:48;;;;;;;;;;;;;;;17.58;48.33;101700.06;5093060;28;1367;-42
2023/01/07 03:05:16;;;;;;;;;;;;;;;17.60;48.85;101701.47;5095727;28;1109;-44
2023/01/07 03:07:45;;;;;;;;;;;;;;;17.18;47.94;101699.34;5095054;28;1129;-43
2023/01/07 03:10:11;;;;;;;;;;;;;;;17.92;48.28;101698.00;5093959;28;1197;-42
2023/01/07 03:12:44;;;;;;;;;;;;;;;17.40;48.49;101701.25;5094281;28;1066;-44
2023/01/07 03:15:18;;;;;;;;;;;;;;;17.55;48.67;101703.34;5093824;28;2574;-42
2023/01/07 03:17:52;;;;;;;;;;;;;;;18.18;48.20;101705.66;5099102;28;1921;-42
2023/01/07 03:20:18;;;;;;;;;;;;;;;17.35;48.17;101699.28;5098416;28;1091;-43
2023/01/07 03:22:44;;;;;;;;;;;;;;;17.09;47.47;101696.19;5099915;28;1027;-42
2023/01/07 03:25:09;;;;;;;;;;;;;;;17.59;48.49;101704.50;5098014;28;1151;-41
2023/01/07 03:27:35;;;;;;;;;;;;;;;17.20;48.03;101701.81;5098664;28;1011;-41
2023/01/07 03:30:05;;;;;;;;;;;;;;;18.35;47.99;101698.09;5098193;28;1125;-43
2023/01/07 03:32:33;;;;;;;;;;;;;;;17.54;48.52;101709.94;5081339;28;1487;-43
2023/01/07 03:34:59;;;;;;;;;;;;;;;17.21;47.83;101720.81;5099413;28;1130;-42
2023/01/07 03:37:26;;;;;;;;;;;;;;;17.84;48.45;101722.34;5097837;28;1905;-45
2023/01/07 03:39:52;;;;;;;;;;;;;;;17.28;48.12;101715.13;5098156;28;1170;-41
2023/01/07 03:42:39;;;;;;;;;;;;;;;17.06;47.44;101712.38;5098024;28;1225;-41
2023/01/07 03:45:07;;;;;;;;;;;;;;;18.17;47.71;101704.81;5085521;28;2558;-42
2023/01/07 03:47:33;;;;;;;;;;;;;;;17.18;48.46;101717.72;5096925;28;1307;-46
2023/01/07 03:49:59;;;;;;;;;;;;;;;17.68;48.52;101719.44;5097519;28;1079;-43
2023/01/07 03:52:24;;;;;;;;;;;;;;;17.97;48.20;101710.97;5097131;28;1228;-43
2023/01/07 03:54:50;;;;;;;;;;;;;;;17.28;47.86;101713.19;5097819;28;1119;-44
2023/01/07 03:57:16;;;;;;;;;;;;;;;17.81;48.55;101709.13;5097088;28;2003;-41
2023/01/07 03:59:41;;;;;;;;;;;;;;;17.40;48.82;101707.59;5097163;28;1349;-44
2023/01/07 04:02:08;;;;;;;;;;;;;;;17.54;48.68;101708.00;5097894;28;1170;-43
2023/01/07 04:04:33;;;;;;;;;;;;;;;18.60;47.07;101704.88;5097247;28;1213;-45
2023/01/07 04:06:59;;;;;;;;;;;;;;;17.38;48.51;101715.25;5097117;28;1157;-45
2023/01/07 04:09:26;;;;;;;;;;;;;;;17.39;48.62;101703.16;5097147;28;1134;-41
2023/01/07 04:11:51;;;;;;;;;;;;;;;17.64;48.65;101706.47;5097324;28;1316;-41
2023/01/07 04:14:17;;;;;;;;;;;;;;;17.13;48.21;101709.44;5092282;28;2781;-41
2023/01/07 04:16:42;;;;;;;;;;;;;;;18.37;47.49;101695.91;5096717;28;1973;-42
2023/01/07 04:19:09;;;;;;;;;;;;;;;17.30;48.87;101715.69;5097004;28;1275;-42
2023/01/07 04:21:34;;;;;;;;;;;;;;;17.06;47.86;101704.13;5096191;28;1070;-41
2023/01/07 04:24:01;;;;;;;;;;;;;;;17.45;48.05;101706.81;5097135;28;1330;-41
2023/01/07 04:26:27;;;;;;;;;;;;;;;17.32;48.69;101719.03;5096500;28;1149;-41
2023/01/07 04:28:53;;;;;;;;;;;;;;;17.06;47.97;101715.94;5096720;28;1230;-42
2023/01/07 04:31:19;;;;;;;;;;;;;;;16.84;47.85;101720.53;5097967;28;1023;-44
2023/01/07 04:33:45;;;;;;;;;;;;;;;17.85;48.05;101724.88;5096724;28;1159;-45
2023/01/07 04:36:12;;;;;;;;;;;;;;;17.12;48.05;101722.31;5097933;28;1148;-41
2023/01/07 04:38:38;;;;;;;;;;;;;;;17.89;48.38;101723.25;5086845;28;1976;-40
2023/01/07 04:41:03;;;;;;;;;;;;;;;17.48;48.51;101719.22;5093194;28;1305;-42
2023/01/07 04:43:29;;;;;;;;;;;;;;;17.00;48.04;101725.19;5092505;28;2331;-43
2023/01/07 04:45:54;;;;;;;;;;;;;;;17.03;48.13;101719.19;5093548;28;1031;-43
2023/01/07 04:48:20;;;;;;;;;;;;;;;17.80;47.91;101727.56;5097535;28;1284;-45
2023/01/07 04:50:48;;;;;;;;;;;;;;;17.07;48.29;101728.59;5096351;28;1238;-44
2023/01/07 04:53:15;;;;;;;;;;;;;;;18.88;46.55;101725.75;5095976;28;2135;-43
2023/01/07 04:55:40;;;;;;;;;;;;;;;17.76;48.33;101724.47;5085282;28;1257;-48
2023/01/07 04:58:06;;;;;;;;;;;;;;;17.26;47.78;101723.63;5086706;28;1909;-43
2023/01/07 05:00:31;;;;;;;;;;;;;;;17.60;48.47;101709.75;5097418;28;1190;-42
2023/01/07 05:02:57;;;;;;;;;;;;;;;17.32;48.72;101716.28;5097657;28;1146;-43
2023/01/07 05:05:22;;;;;;;;;;;;;;;17.73;48.86;101711.25;5096060;28;1173;-45
2023/01/07 05:07:48;;;;;;;;;;;;;;;18.81;46.80;101698.41;5096131;28;1135;-43
2023/01/07 05:10:15;;;;;;;;;;;;;;;17.51;48.52;101699.44;5095372;28;1316;-43
2023/01/07 05:12:40;;;;;;;;;;;;;;;17.15;47.64;101707.25;5095895;28;1162;-41
2023/01/07 05:15:09;;;;;;;;;;;;;;;16.98;46.99;101713.63;5092320;28;2510;-42
2023/01/07 05:17:37;;;;;;;;;;;;;;;17.67;48.04;101717.78;5095919;28;2028;-41
2023/01/07 05:20:04;;;;;;;;;;;;;;;17.31;48.03;101717.34;5096047;28;1162;-42
2023/01/07 05:22:30;;;;;;;;;;;;;;;18.41;47.82;101705.31;5095565;28;844;-41
2023/01/07 05:24:56;;;;;;;;;;;;;;;18.73;47.29;101704.44;5095812;28;1172;-42
2023/01/07 05:27:23;;;;;;;;;;;;;;;17.65;48.38;101702.63;5096034;28;1084;-44
2023/01/07 05:29:49;;;;;;;;;;;;;;;17.37;47.23;101723.75;5095605;28;1140;-41
2023/01/07 05:32:14;;;;;;;;;;;;;;;17.78;48.25;101721.47;5096307;28;1119;-42
2023/01/07 05:34:40;;;;;;;;;;;;;;;17.51;48.52;101713.19;5095435;28;1309;-41
2023/01/07 05:37:06;;;;;;;;;;;;;;;17.41;48.68;101716.66;5095071;28;1972;-44
2023/01/07 05:39:33;;;;;;;;;;;;;;;18.47;47.60;101723.53;5095568;28;1325;-41
2023/01/07 05:41:59;;;;;;;;;;;;;;;17.49;48.62;101710.72;5095452;28;1240;-42
2023/01/07 05:44:26;;;;;;;;;;;;;;;17.25;47.52;101707.38;5083771;28;1793;-41
2023/01/07 05:46:51;;;;;;;;;;;;;;;18.02;48.26;101716.53;5096633;28;907;-41
2023/01/07 05:49:17;;;;;;;;;;;;;;;17.45;48.55;101718.63;5097039;28;1177;-42
2023/01/07 05:51:42;;;;;;;;;;;;;;;17.17;47.35;101725.16;5096163;28;1023;-39
2023/01/07 05:54:08;;;;;;;;;;;;;;;17.01;46.88;101715.03;5091480;28;1178;-40
2023/01/07 05:56:33;;;;;;;;;;;;;;;17.78;47.94;101714.06;5089775;28;1226;-41
2023/01/07 05:58:59;;;;;;;;;;;;;;;17.15;47.88;101716.31;5082828;28;1910;-41
2023/01/07 06:01:24;;;;;;;;;;;;;;;17.87;47.95;101719.94;5088437;28;1006;-42
2023/01/07 06:03:49;;;;;;;;;;;;;;;17.49;48.31;101720.84;5076334;28;1256;-43
2023/01/07 06:06:15;;;;;;;;;;;;;;;17.13;47.51;101721.25;5085834;28;1091;-43
2023/01/07 06:08:40;;;;;;;;;;;;;;;17.43;48.51;101739.22;5093631;28;1010;-45
2023/01/07 06:11:06;;;;;;;;;;;;;;;17.37;48.49;101743.00;5088275;28;902;-41
2023/01/07 06:13:32;;;;;;;;;;;;;;;16.99;47.54;101751.00;5092733;28;1852;-42
2023/01/07 06:16:01;;;;;;;;;;;;;;;17.96;47.74;101750.59;5080597;28;1106;-42
2023/01/07 06:18:27;;;;;;;;;;;;;;;17.21;48.53;101739.22;5082937;28;1886;-45
2023/01/07 06:20:52;;;;;;;;;;;;;;;17.70;48.42;101738.47;5088278;28;1050;-40
2023/01/07 06:23:18;;;;;;;;;;;;;;;18.96;46.06;101738.22;5087348;28;856;-45
2023/01/07 06:25:43;;;;;;;;;;;;;;;17.95;48.36;101744.25;5091339;28;1097;-41
2023/01/07 06:28:08;;;;;;;;;;;;;;;17.47;49.42;101754.13;5095055;28;1022;-44
2023/01/07 06:30:34;;;;;;;;;;;;;;;17.15;50.29;101749.28;5080776;28;1034;-40
2023/01/07 06:32:59;;;;;;;;;;;;;;;16.89;50.87;101742.63;5086941;28;1053;-45
2023/01/07 06:35:25;;;;;;;;;;;;;;;16.70;50.92;101742.03;5095016;28;1141;-42
2023/01/07 06:37:50;;;;;;;;;;;;;;;16.56;51.19;101738.78;5085265;28;1984;-46
2023/01/07 06:40:16;;;;;;;;;;;;;;;16.40;51.46;101746.75;5075801;28;1138;-42
2023/01/07 06:42:41;;;;;;;;;;;;;;;16.26;51.83;101737.19;5076019;28;1020;-42
2023/01/07 06:45:07;;;;;;;;;;;;;;;16.16;51.86;101740.59;5092446;28;2061;-40
2023/01/07 06:47:33;;;;;;;;;;;;;;;16.04;52.30;101740.63;5085173;28;914;-42
2023/01/07 06:49:58;;;;;;;;;;;;;;;15.93;52.17;101735.22;5093325;28;1007;-45
2023/01/07 06:52:23;;;;;;;;;;;;;;;15.86;52.24;101743.59;5080007;28;1011;-45
2023/01/07 06:54:49;;;;;;;;;;;;;;;15.73;52.64;101742.78;5096104;28;1007;-43
2023/01/07 06:57:14;;;;;;;;;;;;;;;15.65;52.63;101739.59;5099830;28;1976;-41
2023/01/07 06:59:40;;;;;;;;;;;;;;;15.58;52.65;101736.97;5099215;28;1033;-41
2023/01/07 07:02:05;;;;;;;;;;;;;;;15.81;52.47;101747.09;5086087;28;1157;-40
2023/01/07 07:04:31;;;;;;;;;;;;;;;17.18;49.66;101745.22;5093191;28;1059;-40
2023/01/07 07:06:56;;;;;;;;;;;;;;;16.20;52.17;101754.63;5092622;28;1142;-40
2023/01/07 07:09:21;;;;;;;;;;;;;;;15.92;52.66;101742.59;5099601;28;1055;-43
2023/01/07 07:11:47;;;;;;;;;;;;;;;15.73;53.21;101756.47;5086242;28;1217;-41
2023/01/07 07:14:12;;;;;;;;;;;;;;;15.62;53.16;101748.31;5090302;28;1110;-40
2023/01/07 07:16:38;;;;;;;;;;;;;;;15.50;53.30;101756.56;5097177;28;1262;-42
2023/01/07 07:19:03;;;;;;;;;;;;;;;15.39;53.42;101750.88;5098764;28;1910;-41
2023/01/07 07:21:29;;;;;;;;;;;;;;;16.03;52.20;101747.22;5099081;28;991;-41
2023/01/07 07:23:54;;;;;;;;;;;;;;;17.34;49.14;101749.84;5090165;28;926;-40
2023/01/07 07:26:19;;;;;;;;;;;;;;;16.26;51.64;101745.44;5092403;28;941;-40
2023/01/07 07:28:45;;;;;;;;;;;;;;;15.87;52.67;101748.00;5087208;28;1134;-43
2023/01/07 07:31:10;;;;;;;;;;;;;;;15.68;53.37;101741.84;5090575;28;998;-41
2023/01/07 07:33:36;;;;;;;;;;;;;;;15.57;53.35;101740.78;5097879;28;1003;-40
2023/01/07 07:36:01;;;;;;;;;;;;;;;15.47;53.37;101740.59;5098399;28;910;-41
2023/01/07 07:38:27;;;;;;;;;;;;;;;17.08;49.81;101744.00;5095814;28;1905;-40
2023/01/07 07:40:52;;;;;;;;;;;;;;;16.43;51.35;101740.78;5097491;28;1258;-46
2023/01/07 07:43:18;;;;;;;;;;;;;;;15.88;52.63;101750.50;5095086;28;1835;-42
2023/01/07 07:45:43;;;;;;;;;;;;;;;15.73;52.89;101745.50;5079046;28;1157;-42
2023/01/07 07:48:09;;;;;;;;;;;;;;;15.61;53.00;101738.41;5088854;28;840;-41
2023/01/07 07:50:34;;;;;;;;;;;;;;;15.44;53.33;101733.69;5095497;28;1168;-41
2023/01/07 07:53:00;;;;;;;;;;;;;;;16.88;50.04;101732.69;5079134;28;1097;-44
2023/01/07 07:55:25;;;;;;;;;;;;;;;16.51;50.90;101734.03;5095509;28;1030;-41
2023/01/07 07:57:54;;;;;;;;;;;;;;;15.95;52.27;101725.69;5097876;28;1910;-43
2023/01/07 08:00:20;;;;;;;;;;;;;;;15.73;52.82;101720.84;5094139;28;1070;-43
2023/01/07 08:02:45;;;;;;;;;;;;;;;15.60;52.97;101725.78;5092042;28;1154;-41
2023/01/07 08:05:11;;;;;;;;;;;;;;;15.84;52.75;101724.66;5090522;28;1106;-42
2023/01/07 08:07:37;;;;;;;;;;;;;;;17.37;48.75;101732.81;5084646;28;1026;-41
2023/01/07 08:10:03;;;;;;;;;;;;;;;16.50;50.72;101739.78;5098446;28;1018;-42
2023/01/07 08:12:28;;;;;;;;;;;;;;;16.01;52.10;101741.13;5084736;28;1141;-41
2023/01/07 08:14:53;;;;;;;;;;;;;;;16.04;52.28;101746.13;5093483;28;2230;-42
2023/01/07 08:17:19;;;;;;;;;;;;;;;17.48;48.49;101721.97;5079003;28;1987;-44
2023/01/07 08:19:44;;;;;;;;;;;;;;;16.47;51.09;101734.81;5078605;28;1082;-42
2023/01/07 08:22:10;;;;;;;;;;;;;;;16.08;52.09;101738.25;5096729;28;1002;-46
2023/01/07 08:24:35;;;;;;;;;;;;;;;15.87;52.70;101731.56;5097489;28;1058;-41
2023/01/07 08:27:01;;;;;;;;;;;;;;;15.72;52.98;101735.66;5084088;28;1114;-40
2023/01/07 08:29:26;;;;;;;;;;;;;;;15.73;52.78;101737.28;5098402;28;1057;-42
2023/01/07 08:31:51;;;;;;;;;;;;;;;17.31;48.83;101736.59;5096560;28;1112;-48
2023/01/07 08:34:17;;;;;;;;;;;;;;;16.50;50.81;101732.38;5086672;28;1387;-46
2023/01/07 08:36:42;;;;;;;;;;;;;;;16.06;52.12;101738.50;5094987;28;899;-46
2023/01/07 08:39:08;;;;;;;;;;;;;;;15.87;52.62;101728.81;5077638;28;1906;-47
2023/01/07 08:41:33;;;;;;;;;;;;;;;17.38;48.59;101725.44;5090304;28;1107;-49
2023/01/07 08:43:59;;;;;;;;;;;;;;;16.57;50.62;101729.47;5087025;28;2130;-56
2023/01/07 08:46:24;;;;;;;;;;;;;;;16.11;51.74;101734.19;5095549;28;1030;-56
2023/01/07 08:48:50;;;;;;;;;;;;;;;15.89;52.51;101721.16;5086347;28;991;-53
2023/01/07 08:51:15;;;;;;;;;;;;;;;15.76;52.92;101721.44;5097378;28;1043;-55
2023/01/07 08:53:41;;;;;;;;;;;;;;;15.63;53.18;101717.91;5089535;28;1114;-55
2023/01/07 08:56:06;;;;;;;;;;;;;;;17.28;48.95;101726.13;5093272;28;1212;-55
2023/01/07 08:58:32;;;;;;;;;;;;;;;16.47;51.04;101712.84;5084095;28;1906;-58
2023/01/07 09:01:01;;;;;;;;;;;;;;;16.01;52.01;101708.22;5088168;28;963;-55
2023/01/07 09:03:27;;;;;;;;;;;;;;;15.80;52.48;101701.53;5096821;28;1061;-55
2023/01/07 09:05:52;;;;;;;;;;;;;;;15.67;52.87;101694.41;5096094;28;1049;-54
2023/01/07 09:08:17;;;;;;;;;;;;;;;15.52;53.23;101694.09;5096524;28;1169;-57
2023/01/07 09:10:43;;;;;;;;;;;;;;;16.72;50.70;101691.25;5094037;28;1022;-57
2023/01/07 09:13:08;;;;;;;;;;;;;;;16.94;49.69;101687.72;5093675;28;1988;-58
2023/01/07 09:15:34;;;;;;;;;;;;;;;16.15;51.78;101686.78;5094331;28;1127;-59
2023/01/07 09:18:02;;;;;;;;;;;;;;;15.88;52.29;101681.13;5086775;28;1909;-59
2023/01/07 09:20:28;;;;;;;;;;;;;;;15.68;52.82;101682.38;5078060;28;986;-57
2023/01/07 09:22:53;;;;;;;;;;;;;;;15.55;53.36;101680.72;5089187;28;1279;-59
2023/01/07 09:25:18;;;;;;;;;;;;;;;16.95;49.91;101678.41;5087341;28;1238;-56
2023/01/07 09:27:44;;;;;;;;;;;;;;;16.95;49.69;101667.41;5097112;28;1224;-64
2023/01/07 09:30:10;;;;;;;;;;;;;;;16.17;51.68;101667.31;5086362;28;999;-56
2023/01/07 09:32:35;;;;;;;;;;;;;;;15.92;52.24;101665.78;5094520;28;1123;-58
2023/01/07 09:35:01;;;;;;;;;;;;;;;15.74;52.61;101659.44;5097092;28;1087;-57
2023/01/07 09:37:26;;;;;;;;;;;;;;;16.24;51.80;101655.13;5084281;28;1913;-57
2023/01/07 09:39:51;;;;;;;;;;;;;;;17.18;48.69;101636.13;5089383;28;1100;-57
2023/01/07 09:42:23;;;;;;;;;;;;;;;16.30;51.44;101653.28;5076703;28;1028;-59
2023/01/07 09:44:55;;;;;;;;;;;;;;;15.98;52.11;101650.28;5085193;28;2163;-56
2023/01/07 09:47:21;;;;;;;;;;;;;;;15.76;52.85;101650.13;5090955;28;1474;-57
2023/01/07 09:49:47;;;;;;;;;;;;;;;15.69;52.88;101645.63;5095673;28;1123;-56
2023/01/07 09:52:13;;;;;;;;;;;;;;;17.23;49.20;101641.66;5095203;28;1039;-49
2023/01/07 09:54:39;;;;;;;;;;;;;;;16.44;50.99;101631.81;5095270;28;1047;-60
2023/01/07 09:57:04;;;;;;;;;;;;;;;15.97;52.14;101624.75;5083248;28;1914;-56
2023/01/07 09:59:30;;;;;;;;;;;;;;;15.81;52.77;101620.06;5095319;28;1010;-54
2023/01/07 10:02:01;;;;;;;;;;;;;;;15.62;52.95;101623.00;5084606;28;1067;-52
2023/01/07 10:04:48;;;;;;;;;;;;;;;16.29;51.68;101626.91;5075856;28;1069;-56
2023/01/07 10:07:20;;;;;;;;;;;;;;;17.12;49.21;101620.66;5088482;28;1020;-49
2023/01/07 10:10:15;;;;;;;;;;;;;;;16.19;51.54;101615.78;5099692;28;1166;-56
2023/01/07 10:12:52;;;;;;;;;;;;;;;15.87;52.42;101605.38;5023747;28;1198;-58
2023/01/07 10:15:36;;;;;;;;;;;;;;;15.70;52.97;101608.91;5076140;28;992;-58
2023/01/07 10:18:17;;;;;;;;;;;;;;;15.55;53.04;101595.75;5096107;28;1988;-60
2023/01/07 10:21:06;;;;;;;;;;;;;;;16.82;50.24;101599.09;5082252;28;1150;-58
2023/01/07 10:23:32;;;;;;;;;;;;;;;16.43;50.90;101588.97;5085014;28;1669;-55
2023/01/07 10:25:59;;;;;;;;;;;;;;;15.97;52.07;101597.31;5095820;28;997;-53
2023/01/07 10:28:27;;;;;;;;;;;;;;;15.77;52.81;101580.47;5094846;28;1075;-57
2023/01/07 10:30:53;;;;;;;;;;;;;;;15.69;52.94;101582.56;5096111;28;1097;-58
2023/01/07 10:33:27;;;;;;;;;;;;;;;17.28;48.89;101575.75;5082489;28;1075;-57
2023/01/07 10:35:56;;;;;;;;;;;;;;;16.48;50.90;101574.47;5095745;28;1173;-56
2023/01/07 10:38:21;;;;;;;;;;;;;;;16.03;52.23;101573.53;5082675;28;1984;-56
2023/01/07 10:40:54;;;;;;;;;;;;;;;15.81;52.54;101577.03;5095567;28;1026;-56
2023/01/07 10:43:51;;;;;;;;;;;;;;;15.59;53.06;101563.19;5079602;28;1875;-56
2023/01/07 10:46:20;;;;;;;;;;;;;;;15.47;53.23;101559.69;5041969;28;1246;-56
2023/01/07 10:49:07;;;;;;;;;;;;;;;16.48;51.30;101560.75;5086051;28;1091;-55
2023/01/07 10:51:59;;;;;;;;;;;;;;;16.98;49.64;101561.69;5075653;28;1014;-57
2023/01/07 10:54:28;;;;;;;;;;;;;;;16.09;51.92;101561.59;5070417;28;1039;-55
2023/01/07 10:56:56;;;;;;;;;;;;;;;15.79;52.54;101560.00;5095386;28;1983;-56
2023/01/07 10:59:22;;;;;;;;;;;;;;;15.66;53.00;101550.16;5095797;28;1125;-54
2023/01/07 11:01:49;;;;;;;;;;;;;;;16.00;52.17;101550.19;5090434;28;1015;-56
2023/01/07 11:04:15;;;;;;;;;;;;;;;17.37;48.61;101542.31;5093942;28;1026;-56
2023/01/07 11:06:40;;;;;;;;;;;;;;;16.34;51.08;101541.91;5094145;28;1062;-57
2023/01/07 11:09:08;;;;;;;;;;;;;;;15.99;52.21;101547.69;5095511;28;1017;-56
2023/01/07 11:11:33;;;;;;;;;;;;;;;15.77;52.73;101533.88;5093972;28;1106;-57
2023/01/07 11:14:00;;;;;;;;;;;;;;;15.61;53.03;101524.56;5080527;28;2417;-56
2023/01/07 11:16:26;;;;;;;;;;;;;;;16.60;50.67;101529.34;5074390;28;906;-58
2023/01/07 11:19:05;;;;;;;;;;;;;;;17.23;49.02;101525.41;5091990;28;1978;-51
2023/01/07 11:21:40;;;;;;;;;;;;;;;16.23;51.42;101524.47;5094203;28;1043;-52
2023/01/07 11:24:26;;;;;;;;;;;;;;;15.90;52.35;101519.88;5093354;28;1002;-55
2023/01/07 11:26:55;;;;;;;;;;;;;;;16.36;51.38;101517.78;5080953;28;1227;-52
2023/01/07 11:29:22;;;;;;;;;;;;;;;17.21;48.85;101519.34;5092662;28;1158;-54
2023/01/07 11:31:51;;;;;;;;;;;;;;;16.31;51.13;101514.94;5073342;28;1043;-55
2023/01/07 11:34:43;;;;;;;;;;;;;;;15.97;52.25;101519.69;5076063;28;1124;-56
2023/01/07 11:37:08;;;;;;;;;;;;;;;15.81;52.54;101519.47;5071186;28;1918;-56
2023/01/07 11:39:34;;;;;;;;;;;;;;;15.60;52.90;101515.53;5083879;28;1369;-56
2023/01/07 11:42:37;;;;;;;;;;;;;;;16.66;50.80;101511.03;5098061;28;1189;-54
2023/01/07 11:44:49;;;;;;;;;;;;;;;16.88;49.77;101501.94;5098066;28;1716;-54
2023/01/07 11:47:15;;;;;;;;;;;;;;;16.15;51.86;101505.69;5097326;28;1249;-54
2023/01/07 11:49:42;;;;;;;;;;;;;;;15.91;52.23;101510.56;5098424;28;1444;-52
2023/01/07 11:52:15;;;;;;;;;;;;;;;15.71;52.67;101506.38;5097415;28;1094;-50
2023/01/07 11:54:41;;;;;;;;;;;;;;;15.65;52.87;101512.84;5094398;28;1094;-54
2023/01/07 11:57:12;;;;;;;;;;;;;;;17.21;49.03;101502.84;5086295;28;1974;-54
2023/01/07 11:59:38;;;;;;;;;;;;;;;16.54;50.75;101507.59;5097269;28;1149;-61
2023/01/07 12:02:08;;;;;;;;;;;;;;;16.02;51.73;101501.41;5082710;28;1106;-55
2023/01/07 12:04:34;;;;;;;;;;;;;;;15.82;52.37;101504.69;5082504;28;1365;-54
2023/01/07 12:07:00;;;;;;;;;;;;;;;15.64;53.07;101492.03;5097914;28;1024;-56
2023/01/07 12:09:35;;;;;;;;;;;;;;;15.52;53.04;101494.00;5097750;28;1037;-56
2023/01/07 12:12:30;;;;;;;;;;;;;;;15.94;52.43;101490.84;5097514;28;1010;-55
2023/01/07 12:14:56;;;;;;;;;;;;;;;17.36;48.49;101488.41;5087814;28;2078;-58
2023/01/07 12:17:21;;;;;;;;;;;;;;;16.28;51.38;101485.28;5094188;28;1917;-51
2023/01/07 12:19:47;;;;;;;;;;;;;;;15.90;52.42;101485.03;5078147;28;994;-52
2023/01/07 12:22:38;;;;;;;;;;;;;;;15.74;52.78;101489.44;5091349;28;1119;-53
2023/01/07 12:25:07;;;;;;;;;;;;;;;15.54;53.17;101494.56;5086417;28;1344;-54
2023/01/07 12:28:02;;;;;;;;;;;;;;;16.39;51.19;101489.81;5084627;28;1182;-57
2023/01/07 12:30:28;;;;;;;;;;;;;;;17.07;49.10;101478.53;5066872;28;1196;-54
2023/01/07 12:32:53;;;;;;;;;;;;;;;16.24;51.21;101475.88;5098206;28;1017;-53
2023/01/07 12:35:38;;;;;;;;;;;;;;;15.87;52.44;101476.50;5098083;28;1246;-51
2023/01/07 12:38:12;;;;;;;;;;;;;;;15.65;52.71;101474.47;5098255;28;1901;-51
2023/01/07 12:40:39;;;;;;;;;;;;;;;15.55;52.93;101477.06;5097612;28;1059;-50
2023/01/07 12:43:12;;;;;;;;;;;;;;;15.44;53.19;101486.19;5095816;28;1914;-55
2023/01/07 12:45:54;;;;;;;;;;;;;;;16.95;50.02;101480.59;5076240;28;1169;-55
2023/01/07 12:48:26;;;;;;;;;;;;;;;16.55;50.68;101487.25;5091006;28;1082;-55
2023/01/07 12:50:52;;;;;;;;;;;;;;;15.90;52.31;101482.28;5095538;28;995;-53
2023/01/07 12:53:17;;;;;;;;;;;;;;;15.72;52.52;101477.91;5097509;28;1022;-55
2023/01/07 12:55:46;;;;;;;;;;;;;;;15.67;53.09;101477.81;5096520;28;1002;-53
2023/01/07 12:58:27;;;;;;;;;;;;;;;17.35;48.88;101471.09;5101241;28;1905;-52